Time;durP1;ratioP1;P1;durP2;ratioP2;P2;SDS_P1;SDS_P2;PMS_P1;PMS_P2;Temp;Humidity;BMP_temperature;BMP_pressure;BME280_temperature;BME280_humidity;BME280_pressure;Samples;Min_cycle;Max_cycle;Signal;HPM_P1;HPM_P2
2021/08/03 00:07:35;;;;;;;1.40;0.50;;;23.40;99.90;;;;;;20909794;23;20264;-67
2021/08/03 00:17:41;;;;;;;3.70;0.20;;;23.40;99.90;;;;;;20940438;28;20227;-68
2021/08/03 00:27:45;;;;;;;0.63;0.30;;;23.60;99.90;;;;;;20948049;28;20582;-67
2021/08/03 00:37:50;;;;;;;10.18;0.50;;;23.80;99.90;;;;;;20957765;28;20226;-63
2021/08/03 00:47:53;;;;;;;0.80;0.47;;;23.90;99.90;;;;;;20956334;28;20350;-67
2021/08/03 00:57:59;;;;;;;0.95;0.47;;;23.80;99.90;;;;;;20954382;28;20212;-68
2021/08/03 01:08:11;;;;;;;0.30;0.30;;;23.60;99.90;;;;;;20938295;28;20227;-68
2021/08/03 01:18:21;;;;;;;2.33;0.67;;;23.60;99.90;;;;;;20954776;28;20804;-68
2021/08/03 01:28:29;;;;;;;0.90;0.70;;;23.30;99.90;;;;;;20952857;28;20678;-68
2021/08/03 01:38:35;;;;;;;1.00;0.90;;;23.10;99.90;;;;;;20952986;28;20228;-68
2021/08/03 01:48:41;;;;;;;1.03;0.53;;;22.80;99.90;;;;;;20950236;28;20193;-68
2021/08/03 01:58:45;;;;;;;0.20;0.10;;;22.60;99.90;;;;;;20949550;28;20235;-69
2021/08/03 02:08:51;;;;;;;2.73;0.93;;;22.50;99.90;;;;;;20986524;22;20423;-66
2021/08/03 02:18:55;;;;;;;0.40;0.17;;;22.40;99.90;;;;;;20951334;28;20224;-66
2021/08/03 02:29:00;;;;;;;5.50;0.70;;;22.30;99.90;;;;;;20933135;28;20188;-65
2021/08/03 02:39:05;;;;;;;0.77;0.47;;;22.20;99.90;;;;;;20950078;28;20225;-65
2021/08/03 02:49:14;;;;;;;0.43;0.20;;;22.00;99.90;;;;;;20950225;28;20201;-64
2021/08/03 02:59:19;;;;;;;0.30;0.20;;;22.00;99.90;;;;;;20949355;23;20229;-66
2021/08/03 03:09:27;;;;;;;0.60;0.60;;;21.80;99.90;;;;;;20998558;28;20208;-68
2021/08/03 03:19:33;;;;;;;0.27;0.10;;;21.80;99.90;;;;;;21012427;28;20235;-68
2021/08/03 03:29:39;;;;;;;0.20;0.10;;;21.90;99.90;;;;;;21030263;28;20203;-67
2021/08/03 03:39:44;;;;;;;1.03;0.37;;;21.80;99.90;;;;;;21030524;28;20468;-66
2021/08/03 03:49:56;;;;;;;0.63;0.50;;;21.70;99.90;;;;;;21026619;28;20219;-67
2021/08/03 04:00:00;;;;;;;0.43;0.20;;;21.70;99.90;;;;;;21019279;22;20224;-70
2021/08/03 04:10:09;;;;;;;0.20;0.20;;;21.60;99.90;;;;;;20923639;28;20562;-71
2021/08/03 04:20:14;;;;;;;0.40;0.40;;;21.70;99.90;;;;;;20937987;28;20233;-72
2021/08/03 04:30:19;;;;;;;4.50;0.60;;;21.80;99.90;;;;;;20941506;28;20250;-70
2021/08/03 04:40:23;;;;;;;0.20;0.20;;;21.80;99.90;;;;;;20937674;28;20208;-74
2021/08/03 04:50:29;;;;;;;1.03;0.63;;;21.90;99.90;;;;;;20939992;28;20196;-73
2021/08/03 05:00:33;;;;;;;3.47;0.87;;;21.70;99.90;;;;;;20949815;28;20232;-72
2021/08/03 05:10:39;;;;;;;1.10;1.00;;;21.70;99.90;;;;;;20889514;28;20490;-72
2021/08/03 05:20:43;;;;;;;1.33;0.90;;;21.70;99.90;;;;;;20870537;28;20315;-72
2021/08/03 05:30:49;;;;;;;12.23;0.60;;;21.90;99.90;;;;;;20852368;28;20208;-73
2021/08/03 05:40:53;;;;;;;0.63;0.50;;;22.00;99.90;;;;;;20868843;28;20225;-72
2021/08/03 05:50:58;;;;;;;0.57;0.40;;;22.20;99.90;;;;;;20848813;28;20586;-73
2021/08/03 06:01:01;;;;;;;3.40;0.77;;;22.70;99.90;;;;;;20883157;28;20699;-73
2021/08/03 06:11:07;;;;;;;0.63;0.53;;;22.80;99.90;;;;;;20936592;28;20197;-73
2021/08/03 06:21:12;;;;;;;0.57;0.53;;;22.90;99.90;;;;;;20948838;28;20231;-72
2021/08/03 06:31:18;;;;;;;4.67;0.87;;;23.30;99.90;;;;;;20921609;28;20197;-71
2021/08/03 06:41:31;;;;;;;1.27;1.17;;;23.60;99.90;;;;;;20944057;28;20225;-72
2021/08/03 06:51:37;;;;;;;0.52;0.52;;;23.90;99.90;;;;;;20927172;28;20203;-72
2021/08/03 07:01:50;;;;;;;2.03;0.38;;;24.50;99.90;;;;;;20941714;28;20236;-71
2021/08/03 07:11:56;;;;;;;0.85;0.65;;;24.70;99.90;;;;;;20854986;28;20209;-71
2021/08/03 07:22:00;;;;;;;0.30;0.28;;;25.20;99.90;;;;;;20861031;28;20247;-71
2021/08/03 07:32:05;;;;;;;1.67;0.55;;;25.20;99.90;;;;;;20857988;28;20205;-70
2021/08/03 07:42:09;;;;;;;3.45;0.95;;;25.40;99.90;;;;;;20855464;28;20452;-69
2021/08/03 07:52:14;;;;;;;0.40;0.40;;;26.00;99.90;;;;;;20857233;28;20197;-73
2021/08/03 08:02:18;;;;;;;4.72;0.63;;;26.10;99.90;;;;;;20889968;28;20294;-71
2021/08/03 08:12:23;;;;;;;1.85;0.90;;;25.80;99.90;;;;;;21019118;28;20200;-71
2021/08/03 08:22:26;;;;;;;0.45;0.40;;;26.10;99.90;;;;;;20997039;28;20471;-71
2021/08/03 08:32:32;;;;;;;0.30;0.30;;;26.50;99.90;;;;;;20936346;28;20207;-69
2021/08/03 08:42:37;;;;;;;0.55;0.40;;;26.50;99.90;;;;;;20937869;28;20232;-70
2021/08/03 08:52:45;;;;;;;0.35;0.35;;;26.30;99.90;;;;;;20948541;28;20205;-73
2021/08/03 09:02:51;;;;;;;0.57;0.57;;;26.30;99.90;;;;;;20980269;28;20229;-74
2021/08/03 09:13:01;;;;;;;0.45;0.20;;;26.50;99.90;;;;;;20952966;28;20297;-70
2021/08/03 09:23:05;;;;;;;0.90;0.60;;;26.70;99.90;;;;;;20949426;28;20217;-71
2021/08/03 09:33:10;;;;;;;0.20;0.20;;;26.80;99.90;;;;;;20950171;28;20197;-71
2021/08/03 09:43:15;;;;;;;0.30;0.17;;;27.00;99.90;;;;;;20948411;28;20597;-69
2021/08/03 09:53:39;;;;;;;0.63;0.38;;;27.00;99.90;;;;;;20949259;28;20201;-72
2021/08/03 10:03:43;;;;;;;0.43;0.38;;;26.90;99.90;;;;;;20978859;28;20601;-72
2021/08/03 10:13:49;;;;;;;0.35;0.17;;;27.50;99.90;;;;;;20946953;28;20197;-71
2021/08/03 10:23:53;;;;;;;1.40;1.00;;;27.20;99.90;;;;;;20944019;28;20585;-72
2021/08/03 10:33:59;;;;;;;2.33;1.17;;;28.30;99.90;;;;;;20948299;28;20446;-71
2021/08/03 10:44:04;;;;;;;0.60;0.30;;;28.40;99.90;;;;;;20924911;28;20702;-72
2021/08/03 10:54:11;;;;;;;0.43;0.43;;;28.50;99.90;;;;;;20942659;28;20537;-72
2021/08/03 11:04:49;;;;;;;0.88;0.43;;;28.40;99.90;;;;;;21001903;28;20323;-74
2021/08/03 11:14:54;;;;;;;0.73;0.55;;;28.30;99.90;;;;;;20942498;28;20193;-71
2021/08/03 11:24:58;;;;;;;0.30;0.30;;;28.80;99.90;;;;;;20924899;28;20683;-69
2021/08/03 11:35:03;;;;;;;2.42;1.42;;;29.60;99.90;;;;;;20940601;28;20208;-71
2021/08/03 11:45:12;;;;;;;0.73;0.73;;;29.20;99.90;;;;;;20940640;28;20960;-71
2021/08/03 11:55:17;;;;;;;3.03;0.55;;;29.50;99.90;;;;;;20938737;28;20201;-69
2021/08/03 12:05:27;;;;;;;3.17;1.30;;;29.30;99.90;;;;;;20950683;28;20246;-69
2021/08/03 12:15:45;;;;;;;0.57;0.30;;;29.50;99.90;;;;;;20902811;28;20557;-70
2021/08/03 12:25:55;;;;;;;0.95;0.70;;;29.00;99.90;;;;;;20854501;28;20227;-69
2021/08/03 12:36:07;;;;;;;0.55;0.43;;;29.60;99.90;;;;;;20855749;28;20302;-67
2021/08/03 12:46:11;;;;;;;0.40;0.35;;;28.30;99.90;;;;;;20854199;28;20243;-66
2021/08/03 12:56:29;;;;;;;0.45;0.30;;;28.90;99.90;;;;;;20858195;28;20981;-66
2021/08/03 13:06:32;;;;;;;0.20;0.10;;;27.80;99.90;;;;;;20974821;28;20362;-67
2021/08/03 13:16:37;;;;;;;0.57;0.55;;;29.10;99.90;;;;;;20936678;28;20204;-68
2021/08/03 13:26:41;;;;;;;3.25;1.85;;;33.40;99.90;;;;;;20936928;28;20527;-68
2021/08/03 13:36:46;;;;;;;1.92;0.90;;;31.60;99.90;;;;;;20942735;28;20655;-68
2021/08/03 13:46:50;;;;;;;0.98;0.93;;;33.60;99.90;;;;;;20951711;28;20888;-67
2021/08/03 13:56:55;;;;;;;1.05;0.65;;;34.10;99.90;;;;;;20957363;28;20212;-68
2021/08/03 14:07:03;;;;;;;0.50;0.43;;;31.60;99.90;;;;;;21000201;28;20245;-69
2021/08/03 14:17:09;;;;;;;0.93;0.65;;;28.90;99.90;;;;;;20947950;28;20185;-67
2021/08/03 14:27:12;;;;;;;1.55;1.00;;;28.20;99.90;;;;;;20946076;28;20232;-69
2021/08/03 14:37:17;;;;;;;1.63;0.80;;;30.50;99.90;;;;;;20926435;28;20201;-66
2021/08/03 14:47:22;;;;;;;2.28;1.70;;;33.20;99.90;;;;;;20945669;28;20232;-69
2021/08/03 14:57:27;;;;;;;0.68;0.50;;;33.50;99.90;;;;;;20936952;28;20199;-66
2021/08/03 15:07:30;;;;;;;0.73;0.40;;;33.10;99.90;;;;;;20991115;28;20717;-66
2021/08/03 15:17:36;;;;;;;0.80;0.65;;;34.00;99.90;;;;;;20942072;28;20211;-67
2021/08/03 15:27:40;;;;;;;1.23;0.63;;;35.10;99.90;;;;;;20941519;28;20286;-69
2021/08/03 15:37:46;;;;;;;0.75;0.75;;;33.50;99.90;;;;;;20922864;28;20450;-69
2021/08/03 15:47:50;;;;;;;1.23;0.60;;;33.50;99.90;;;;;;20940516;28;20368;-68
2021/08/03 15:57:55;;;;;;;6.53;0.85;;;32.30;99.90;;;;;;20956312;28;20286;-68
2021/08/03 16:07:59;;;;;;;3.58;0.77;;;31.10;99.90;;;;;;20979769;28;20232;-70
2021/08/03 16:18:06;;;;;;;0.52;0.50;;;30.80;99.90;;;;;;20920650;28;20375;-67
2021/08/03 16:28:10;;;;;;;0.30;0.28;;;29.60;99.90;;;;;;20938120;28;20193;-70
2021/08/03 16:38:17;;;;;;;0.68;0.60;;;28.80;99.90;;;;;;20920131;28;20638;-70
2021/08/03 16:48:21;;;;;;;2.33;1.17;;;28.50;99.90;;;;;;20935200;28;20208;-72
2021/08/03 16:58:26;;;;;;;1.67;0.93;;;28.20;99.90;;;;;;20956021;28;20338;-69
2021/08/03 17:08:36;;;;;;;0.90;0.85;;;28.50;99.90;;;;;;20890722;28;20241;-71
2021/08/03 17:18:51;;;;;;;0.63;0.13;;;28.60;99.90;;;;;;20867729;28;20276;-73
2021/08/03 17:28:55;;;;;;;7.45;1.17;;;29.60;99.90;;;;;;20870315;28;20201;-73
2021/08/03 17:39:00;;;;;;;1.13;0.73;;;30.30;99.90;;;;;;20933361;28;20527;-72
2021/08/03 17:49:08;;;;;;;0.75;0.50;;;30.20;99.90;;;;;;20951175;28;20204;-70
2021/08/03 17:59:22;;;;;;;0.63;0.63;;;30.10;99.90;;;;;;20952073;28;20717;-71
2021/08/03 18:09:27;;;;;;;0.35;0.35;;;28.90;99.90;;;;;;20898189;28;20201;-72
2021/08/03 18:19:35;;;;;;;4.57;0.35;;;27.60;99.90;;;;;;20863605;28;20222;-73
2021/08/03 18:30:05;;;;;;;1.05;0.95;;;26.70;99.90;;;;;;20866073;28;20715;-75
2021/08/03 18:40:13;;;;;;;0.28;0.28;;;26.50;99.90;;;;;;20936924;28;20760;-73
2021/08/03 18:50:16;;;;;;;0.32;0.20;;;26.20;99.90;;;;;;20945499;28;20642;-77
2021/08/03 19:00:22;;;;;;;0.43;0.43;;;25.90;99.90;;;;;;20942384;28;20232;-71
2021/08/03 19:10:31;;;;;;;0.82;0.40;;;25.80;99.90;;;;;;20944401;28;20201;-75
2021/08/03 19:20:37;;;;;;;0.30;0.30;;;25.70;99.90;;;;;;20943882;28;20235;-73
2021/08/03 19:30:41;;;;;;;0.52;0.40;;;25.60;99.90;;;;;;20934554;28;20752;-76
2021/08/03 19:40:48;;;;;;;0.20;0.20;;;25.60;99.90;;;;;;20940737;28;20976;-73
2021/08/03 19:50:54;;;;;;;0.70;0.40;;;25.50;99.90;;;;;;20940103;28;20192;-76
2021/08/03 20:01:01;;;;;;;0.68;0.60;;;25.50;99.90;;;;;;20941724;28;20696;-75
2021/08/03 20:11:05;;;;;;;1.85;0.85;;;25.40;99.90;;;;;;20935778;28;20196;-72
2021/08/03 20:21:11;;;;;;;0.52;0.52;;;25.30;99.90;;;;;;20921389;28;20524;-72
2021/08/03 20:31:18;;;;;;;0.30;0.30;;;25.40;99.90;;;;;;20938287;28;20196;-73
2021/08/03 20:41:25;;;;;;;0.40;0.20;;;25.30;99.90;;;;;;20939171;28;20232;-73
2021/08/03 20:51:29;;;;;;;0.80;0.50;;;25.30;99.90;;;;;;20956157;28;20196;-73
2021/08/03 21:01:37;;;;;;;0.40;0.40;;;25.00;99.90;;;;;;20934679;28;20236;-73
2021/08/03 21:11:41;;;;;;;0.63;0.50;;;24.70;99.90;;;;;;20953702;28;20250;-72
2021/08/03 21:21:46;;;;;;;0.35;0.20;;;24.50;99.90;;;;;;20932811;28;20744;-71
2021/08/03 21:31:50;;;;;;;0.93;0.57;;;24.30;99.90;;;;;;20952418;28;20185;-71
2021/08/03 21:41:55;;;;;;;1.38;0.95;;;24.30;99.90;;;;;;20949834;28;20220;-72
2021/08/03 21:51:59;;;;;;;0.50;0.50;;;24.10;99.90;;;;;;20951004;28;20193;-72
2021/08/03 22:02:05;;;;;;;0.68;0.60;;;24.10;99.90;;;;;;20947862;28;20319;-72
2021/08/03 22:12:09;;;;;;;0.68;0.40;;;24.10;99.90;;;;;;20948036;28;20189;-72
2021/08/03 22:32:31;;;;;;;1.35;0.65;;;23.90;99.90;;;;;;20758716;23;20568;-70
2021/08/03 22:42:35;;;;;;;0.30;0.15;;;23.90;99.90;;;;;;20621872;28;20223;-72
2021/08/03 22:52:40;;;;;;;1.03;0.93;;;24.00;99.90;;;;;;20621351;28;20203;-73
2021/08/03 23:02:44;;;;;;;0.20;0.10;;;23.90;99.90;;;;;;20612868;28;20832;-73
2021/08/03 23:12:50;;;;;;;0.63;0.52;;;23.80;99.90;;;;;;20618927;28;20195;-72
2021/08/03 23:22:53;;;;;;;0.33;0.17;;;23.90;99.90;;;;;;20617233;28;20223;-74
2021/08/03 23:33:01;;;;;;;0.22;0.20;;;24.00;99.90;;;;;;20618458;28;20220;-72
2021/08/03 23:43:05;;;;;;;1.13;0.63;;;24.20;99.90;;;;;;20616485;28;20708;-73
2021/08/03 23:53:10;;;;;;;0.40;0.40;;;24.30;99.90;;;;;;20618322;28;20196;-73
